createdAt,value
2019-03-19T00:00:25.194Z,1011.17
2019-03-19T00:06:25.163Z,1011.13
2019-03-19T00:12:25.195Z,1011.17
2019-03-19T00:18:25.235Z,1011.31
2019-03-19T00:24:25.281Z,1011.25
2019-03-19T00:30:25.225Z,1011.32
2019-03-19T00:36:25.189Z,1011.25
2019-03-19T00:42:25.215Z,1011.26
2019-03-19T00:48:25.205Z,1011.28
2019-03-19T00:54:25.244Z,1011.23
2019-03-19T01:00:25.237Z,1011.18
2019-03-19T01:06:25.699Z,1011.17
2019-03-19T01:12:25.253Z,1011.18
2019-03-19T01:18:25.237Z,1011.16
2019-03-19T01:24:25.243Z,1011.23
2019-03-19T01:30:25.254Z,1011.19
2019-03-19T01:36:25.248Z,1011.24
2019-03-19T01:42:25.305Z,1011.21
2019-03-19T01:48:25.364Z,1011.20
2019-03-19T01:54:25.304Z,1011.18
2019-03-19T02:00:25.255Z,1011.19
2019-03-19T02:06:26.404Z,1011.21
2019-03-19T02:12:25.278Z,1011.31
2019-03-19T02:18:25.302Z,1011.26
2019-03-19T02:24:25.274Z,1011.25
2019-03-19T02:30:25.349Z,1011.32
2019-03-19T02:36:25.298Z,1011.38
2019-03-19T02:42:25.320Z,1011.37
2019-03-19T02:48:25.371Z,1011.52
2019-03-19T02:54:25.313Z,1011.53
2019-03-19T03:00:25.308Z,1011.49
2019-03-19T03:06:25.476Z,1011.55
2019-03-19T03:12:25.347Z,1011.57
2019-03-19T03:18:25.361Z,1011.72
2019-03-19T03:24:25.337Z,1011.84
2019-03-19T03:30:25.354Z,1011.77
2019-03-19T03:36:25.351Z,1011.93
2019-03-19T03:42:25.371Z,1011.89
2019-03-19T03:48:25.379Z,1011.98
2019-03-19T03:54:25.341Z,1011.98
2019-03-19T04:00:25.458Z,1012.06
2019-03-19T04:06:25.343Z,1012.19
2019-03-19T04:12:25.366Z,1012.26
2019-03-19T04:18:25.387Z,1012.31
2019-03-19T04:24:25.369Z,1012.39
2019-03-19T04:30:25.458Z,1012.32
2019-03-19T04:36:25.395Z,1012.58
2019-03-19T04:42:25.380Z,1012.69
2019-03-19T04:48:25.381Z,1012.84
2019-03-19T04:54:25.434Z,1012.89
2019-03-19T05:00:25.500Z,1012.89
2019-03-19T05:06:25.425Z,1012.96
2019-03-19T05:12:25.422Z,1012.98
2019-03-19T05:18:25.407Z,1013.07
2019-03-19T05:24:25.409Z,1013.07
2019-03-19T05:30:25.419Z,1013.19
2019-03-19T05:36:25.525Z,1013.22
2019-03-19T05:42:25.525Z,1013.23
2019-03-19T05:48:25.465Z,1013.34
2019-03-19T05:54:25.540Z,1013.45
2019-03-19T06:00:25.788Z,1013.44
2019-03-19T06:06:25.727Z,1013.57
2019-03-19T06:12:25.771Z,1013.69
2019-03-19T06:18:34.665Z,1013.66
2019-03-19T06:24:25.755Z,1013.62
2019-03-19T06:30:25.790Z,1013.78
2019-03-19T06:36:25.465Z,1013.79
2019-03-19T06:42:25.786Z,1013.87
2019-03-19T06:48:25.548Z,1013.88
2019-03-19T06:54:25.546Z,1013.93
2019-03-19T07:00:25.904Z,1013.98
2019-03-19T07:06:25.748Z,1014.08
2019-03-19T07:12:25.798Z,1014.09
2019-03-19T07:18:25.510Z,1014.07
2019-03-19T07:24:25.764Z,1014.18
2019-03-19T07:30:25.513Z,1014.28
2019-03-19T07:36:25.857Z,1014.31
2019-03-19T07:42:25.805Z,1014.46
2019-03-19T07:48:25.761Z,1014.47
2019-03-19T08:05:11.368Z,1014.56
2019-03-19T08:11:13.100Z,1014.59
2019-03-19T08:17:11.366Z,1014.61
2019-03-19T08:23:11.351Z,1014.66
2019-03-19T08:29:11.392Z,1014.67
2019-03-19T08:35:11.377Z,1014.72
2019-03-19T08:41:11.372Z,1014.69
2019-03-19T08:47:11.376Z,1014.70
2019-03-19T08:53:11.427Z,1014.75
2019-03-19T08:59:11.394Z,1014.81
2019-03-19T09:05:11.406Z,1014.76
2019-03-19T09:11:11.404Z,1014.75
2019-03-19T09:17:11.499Z,1014.77
2019-03-19T09:23:11.674Z,1014.83
2019-03-19T09:29:16.734Z,1014.87
2019-03-19T09:35:11.453Z,1014.96
2019-03-19T09:41:11.420Z,1015.02
2019-03-19T09:47:11.430Z,1014.98
2019-03-19T09:53:11.430Z,1015.02
2019-03-19T09:59:11.512Z,1015.13
2019-03-19T10:05:11.448Z,1015.12
2019-03-19T10:11:11.436Z,1015.10
2019-03-19T10:17:11.436Z,1015.07
2019-03-19T10:23:11.450Z,1015.00
2019-03-19T10:29:11.606Z,1015.15
2019-03-19T10:35:11.445Z,1015.15
2019-03-19T10:41:11.474Z,1015.14
2019-03-19T10:47:11.482Z,1015.21
2019-03-19T10:53:11.475Z,1015.13
2019-03-19T10:59:11.520Z,1015.23
2019-03-19T11:05:11.568Z,1015.23
2019-03-19T11:11:11.507Z,1015.22
2019-03-19T11:17:11.504Z,1015.16
2019-03-19T11:23:11.494Z,1015.19
2019-03-19T11:29:11.554Z,1015.27
2019-03-19T11:35:11.682Z,1015.15
2019-03-19T11:41:11.509Z,1015.06
2019-03-19T11:47:11.512Z,1015.14
2019-03-19T11:53:11.503Z,1015.16
2019-03-19T11:59:11.527Z,1015.12
2019-03-19T12:05:11.545Z,1015.14
2019-03-19T12:11:11.530Z,1015.06
2019-03-19T12:17:11.530Z,1015.05
2019-03-19T12:23:11.534Z,1015.05
2019-03-19T12:29:11.543Z,1015.00
2019-03-19T12:35:11.556Z,1015.03
2019-03-19T12:41:11.543Z,1014.92
2019-03-19T12:47:11.549Z,1014.95
2019-03-19T12:53:11.540Z,1014.93
2019-03-19T12:59:19.846Z,1014.83
2019-03-19T13:05:11.567Z,1014.84
2019-03-19T13:11:11.566Z,1014.80
2019-03-19T13:17:11.567Z,1014.79
2019-03-19T13:23:11.578Z,1014.88
2019-03-19T13:29:11.586Z,1014.91
2019-03-19T13:35:11.582Z,1014.95
2019-03-19T13:41:11.574Z,1014.88
2019-03-19T13:47:11.677Z,1014.90
2019-03-19T13:53:11.601Z,1014.86
2019-03-19T13:59:11.601Z,1014.80
2019-03-19T14:05:11.610Z,1014.91
2019-03-19T14:11:11.619Z,1014.83
2019-03-19T14:17:11.615Z,1014.86
2019-03-19T14:23:11.730Z,1014.90
2019-03-19T14:29:11.771Z,1014.91
2019-03-19T14:35:11.658Z,1015.03
2019-03-19T14:41:11.621Z,1014.96
2019-03-19T14:47:11.880Z,1014.96
2019-03-19T14:53:11.638Z,1014.96
2019-03-19T14:59:11.677Z,1014.88
2019-03-19T15:05:11.742Z,1014.89
2019-03-19T15:11:11.655Z,1014.83
2019-03-19T15:17:11.670Z,1014.85
2019-03-19T15:23:11.656Z,1014.89
2019-03-19T15:29:11.677Z,1014.90
2019-03-19T15:35:11.676Z,1014.91
2019-03-19T15:41:11.871Z,1014.91
2019-03-19T15:47:11.704Z,1014.88
2019-03-19T15:53:11.710Z,1014.81
2019-03-19T15:59:11.790Z,1014.92
2019-03-19T16:05:11.709Z,1015.02
2019-03-19T16:11:11.879Z,1015.07
2019-03-19T16:17:11.716Z,1015.11
2019-03-19T16:23:11.705Z,1015.20
2019-03-19T16:29:11.729Z,1015.31
2019-03-19T16:35:11.718Z,1015.41
2019-03-19T16:41:11.728Z,1015.48
2019-03-19T16:47:11.758Z,1015.55
2019-03-19T16:53:11.761Z,1015.69
2019-03-19T16:59:11.751Z,1015.81
2019-03-19T17:05:11.750Z,1015.80
2019-03-19T17:11:11.897Z,1015.85
2019-03-19T17:17:11.759Z,1015.94
2019-03-19T17:23:11.750Z,1016.07
2019-03-19T17:29:11.918Z,1016.10
2019-03-19T17:35:11.768Z,1016.14
2019-03-19T17:41:11.775Z,1016.13
2019-03-19T17:47:11.786Z,1016.23
2019-03-19T17:53:11.887Z,1016.37
2019-03-19T17:59:11.926Z,1016.35
2019-03-19T18:05:11.934Z,1016.47
2019-03-19T18:11:11.797Z,1016.52
2019-03-19T18:17:11.841Z,1016.67
2019-03-19T18:23:11.884Z,1016.67
2019-03-19T18:29:11.805Z,1016.70
2019-03-19T18:35:11.881Z,1016.78
2019-03-19T18:41:11.921Z,1016.84
2019-03-19T18:47:12.243Z,1016.81
2019-03-19T18:53:11.823Z,1016.93
2019-03-19T18:59:11.820Z,1016.90
2019-03-19T19:05:11.834Z,1016.98
2019-03-19T19:11:11.849Z,1017.10
2019-03-19T19:17:13.237Z,1017.19
2019-03-19T19:23:11.900Z,1017.19
2019-03-19T19:29:11.835Z,1017.27
2019-03-19T19:35:11.903Z,1017.31
2019-03-19T19:41:11.880Z,1017.37
2019-03-19T19:47:11.853Z,1017.36
2019-03-19T19:53:11.896Z,1017.42
2019-03-19T19:59:11.951Z,1017.41
2019-03-19T20:05:11.866Z,1017.48
2019-03-19T20:11:11.944Z,1017.43
2019-03-19T20:17:11.883Z,1017.52
2019-03-19T20:23:11.914Z,1017.58
2019-03-19T20:29:11.902Z,1017.66
2019-03-19T20:35:11.910Z,1017.65
2019-03-19T20:41:11.935Z,1017.71
2019-03-19T20:47:11.900Z,1017.72
2019-03-19T20:53:11.920Z,1017.88
2019-03-19T20:59:11.964Z,1017.94
2019-03-19T21:05:12.015Z,1017.99
2019-03-19T21:11:11.944Z,1018.13
2019-03-19T21:17:11.969Z,1018.16
2019-03-19T21:23:11.939Z,1018.21
2019-03-19T21:29:12.073Z,1018.20
2019-03-19T21:35:12.041Z,1018.31
2019-03-19T21:41:12.050Z,1018.29
2019-03-19T21:47:11.976Z,1018.22
2019-03-19T21:53:11.966Z,1018.35
2019-03-19T21:59:12.084Z,1018.49
2019-03-19T22:05:11.953Z,1018.45
2019-03-19T22:11:11.996Z,1018.69
2019-03-19T22:17:11.969Z,1018.59
2019-03-19T22:23:12.040Z,1018.71
2019-03-19T22:29:12.839Z,1018.71
2019-03-19T22:35:12.027Z,1018.71
2019-03-19T22:41:12.209Z,1018.69
2019-03-19T22:47:12.106Z,1018.73
2019-03-19T22:53:12.004Z,1018.86
2019-03-19T22:59:12.094Z,1018.88
2019-03-19T23:05:12.027Z,1018.99
2019-03-19T23:11:12.074Z,1018.91
2019-03-19T23:17:12.041Z,1018.92
2019-03-19T23:23:12.071Z,1018.94
2019-03-19T23:29:12.045Z,1018.99
2019-03-19T23:35:12.151Z,1019.08
2019-03-19T23:41:12.071Z,1019.09
2019-03-19T23:47:12.121Z,1019.11
2019-03-19T23:53:12.061Z,1019.16
2019-03-19T23:59:12.074Z,1019.28
